createdAt,value
2022-12-07T00:00:43.515Z,3.20
2022-12-07T00:03:17.112Z,4.60
2022-12-07T00:05:50.581Z,4.50
2022-12-07T00:08:23.373Z,4.70
2022-12-07T00:10:57.044Z,4.60
2022-12-07T00:13:34.627Z,4.10
2022-12-07T00:16:18.001Z,4.20
2022-12-07T00:18:52.290Z,4.10
2022-12-07T00:21:32.175Z,3.20
2022-12-07T00:24:08.119Z,4.00
2022-12-07T00:26:44.143Z,4.10
2022-12-07T00:29:23.790Z,3.10
2022-12-07T00:31:57.780Z,2.90
2022-12-07T00:34:31.274Z,2.70
2022-12-07T00:37:04.805Z,3.10
2022-12-07T00:39:40.500Z,3.50
2022-12-07T00:42:13.317Z,2.60
2022-12-07T00:46:10.871Z,2.60
2022-12-07T00:49:17.375Z,3.20
2022-12-07T00:52:25.635Z,2.20
2022-12-07T00:55:10.437Z,2.30
2022-12-07T00:57:58.496Z,2.00
2022-12-07T01:00:54.039Z,2.20
2022-12-07T01:04:25.704Z,2.60
2022-12-07T01:07:07.024Z,2.00
2022-12-07T01:10:15.496Z,2.40
2022-12-07T01:13:09.208Z,2.40
2022-12-07T01:15:50.374Z,2.30
2022-12-07T01:18:34.175Z,2.10
2022-12-07T01:21:19.089Z,2.40
2022-12-07T01:24:08.518Z,2.40
2022-12-07T01:26:42.916Z,1.80
2022-12-07T01:29:22.876Z,1.90
2022-12-07T01:32:02.184Z,2.00
2022-12-07T01:34:37.232Z,2.10
2022-12-07T01:37:10.151Z,2.40
2022-12-07T01:39:39.010Z,2.30
2022-12-07T01:42:13.770Z,2.00
2022-12-07T01:45:52.920Z,1.40
2022-12-07T01:49:37.171Z,1.90
2022-12-07T01:52:34.504Z,1.80
2022-12-07T01:55:13.932Z,2.30
2022-12-07T01:57:51.005Z,1.60
2022-12-07T02:00:20.806Z,1.50
2022-12-07T02:03:26.942Z,1.80
2022-12-07T02:06:01.607Z,1.80
2022-12-07T02:08:30.668Z,1.70
2022-12-07T02:11:09.520Z,2.10
2022-12-07T02:13:47.443Z,2.20
2022-12-07T02:16:39.767Z,2.10
2022-12-07T02:19:26.425Z,1.50
2022-12-07T02:22:36.916Z,1.40
2022-12-07T02:26:21.619Z,1.50
2022-12-07T02:29:30.113Z,1.40
2022-12-07T02:32:55.932Z,1.50
2022-12-07T02:35:50.667Z,1.80
2022-12-07T02:38:38.222Z,1.50
2022-12-07T02:41:39.709Z,1.50
2022-12-07T02:44:17.020Z,1.50
2022-12-07T02:46:55.745Z,1.40
2022-12-07T02:49:48.949Z,1.40
2022-12-07T02:53:16.913Z,1.60
2022-12-07T02:56:47.363Z,1.20
2022-12-07T03:00:41.564Z,1.40
2022-12-07T03:08:10.502Z,1.60
2022-12-07T03:11:30.329Z,1.40
2022-12-07T03:14:31.730Z,1.60
2022-12-07T03:17:35.649Z,2.10
2022-12-07T03:20:17.922Z,2.40
2022-12-07T03:22:58.023Z,1.60
2022-12-07T03:25:41.532Z,2.00
2022-12-07T03:28:22.535Z,1.80
2022-12-07T03:31:31.741Z,2.30
2022-12-07T03:34:58.190Z,2.30
2022-12-07T03:37:51.583Z,2.30
2022-12-07T03:41:02.152Z,2.10
2022-12-07T03:43:42.410Z,2.70
2022-12-07T03:46:41.817Z,1.80
2022-12-07T03:50:13.590Z,1.50
2022-12-07T03:53:01.915Z,1.50
2022-12-07T03:55:45.962Z,1.60
2022-12-07T03:58:24.136Z,1.70
2022-12-07T04:00:57.899Z,1.40
2022-12-07T04:03:33.395Z,1.40
2022-12-07T04:06:03.266Z,1.10
2022-12-07T04:08:32.740Z,1.70
2022-12-07T04:11:02.491Z,1.00
2022-12-07T04:13:58.376Z,1.50
2022-12-07T04:16:38.409Z,1.40
2022-12-07T04:19:14.430Z,1.60
2022-12-07T04:21:44.958Z,1.40
2022-12-07T04:24:16.917Z,1.70
2022-12-07T04:26:47.712Z,1.50
2022-12-07T04:29:18.328Z,1.80
2022-12-07T04:31:48.232Z,2.50
2022-12-07T04:34:19.037Z,2.10
2022-12-07T04:36:49.804Z,2.40
2022-12-07T04:39:31.552Z,1.90
2022-12-07T04:42:07.088Z,2.20
2022-12-07T04:44:41.367Z,2.60
2022-12-07T04:47:14.177Z,1.90
2022-12-07T04:49:50.012Z,2.70
2022-12-07T04:52:25.964Z,2.10
2022-12-07T04:54:59.918Z,1.90
2022-12-07T04:57:58.640Z,2.30
2022-12-07T05:00:34.264Z,2.10
2022-12-07T05:03:08.171Z,2.60
2022-12-07T05:05:43.184Z,2.30
2022-12-07T05:08:18.081Z,2.80
2022-12-07T05:10:52.055Z,3.10
2022-12-07T05:13:26.992Z,2.90
2022-12-07T05:16:04.171Z,3.30
2022-12-07T05:18:39.836Z,3.10
2022-12-07T05:21:14.927Z,4.10
2022-12-07T05:23:43.885Z,3.80
2022-12-07T05:26:12.906Z,4.20
2022-12-07T05:28:55.038Z,4.10
2022-12-07T05:31:31.218Z,4.00
2022-12-07T05:34:05.057Z,5.10
2022-12-07T05:36:38.933Z,4.90
2022-12-07T05:39:13.887Z,5.20
2022-12-07T05:42:05.530Z,5.20
2022-12-07T05:44:49.897Z,5.00
2022-12-07T05:47:24.880Z,5.50
2022-12-07T05:50:00.226Z,6.00
2022-12-07T05:52:35.104Z,5.60
2022-12-07T05:55:11.928Z,5.10
2022-12-07T05:58:29.688Z,6.10
2022-12-07T06:00:58.812Z,5.50
2022-12-07T06:03:27.939Z,6.20
2022-12-07T06:05:56.727Z,5.80
2022-12-07T06:08:26.045Z,6.50
2022-12-07T06:11:15.029Z,6.50
2022-12-07T06:13:47.319Z,6.20
2022-12-07T06:16:16.676Z,6.50
2022-12-07T06:18:45.399Z,6.20
2022-12-07T06:21:14.285Z,6.30
2022-12-07T06:23:43.177Z,7.20
2022-12-07T06:26:12.070Z,7.00
2022-12-07T06:28:42.147Z,7.70
2022-12-07T06:31:14.173Z,6.60
2022-12-07T06:33:44.248Z,6.60
2022-12-07T06:36:13.475Z,6.30
2022-12-07T06:38:42.681Z,7.10
2022-12-07T06:41:11.876Z,7.40
2022-12-07T06:43:41.282Z,6.70
2022-12-07T06:46:10.401Z,7.20
2022-12-07T06:48:39.355Z,7.00
2022-12-07T06:51:11.899Z,7.80
2022-12-07T06:53:41.035Z,6.10
2022-12-07T06:56:10.131Z,7.30
2022-12-07T06:58:39.129Z,7.00
2022-12-07T07:01:17.071Z,6.40
2022-12-07T07:03:49.268Z,6.80
2022-12-07T07:06:18.298Z,7.20
2022-12-07T07:08:48.233Z,6.00
2022-12-07T07:11:18.727Z,6.10
2022-12-07T07:13:47.943Z,6.50
2022-12-07T07:16:16.887Z,7.50
2022-12-07T07:18:45.828Z,6.40
2022-12-07T07:21:14.921Z,6.30
2022-12-07T07:23:43.804Z,6.20
2022-12-07T07:26:12.718Z,5.80
2022-12-07T07:28:41.721Z,6.30
2022-12-07T07:31:10.787Z,6.40
2022-12-07T07:33:39.683Z,5.80
2022-12-07T07:36:09.505Z,6.00
2022-12-07T07:38:38.282Z,6.40
2022-12-07T07:41:07.176Z,5.50
2022-12-07T07:43:36.092Z,6.80
2022-12-07T07:46:05.586Z,6.00
2022-12-07T07:48:34.361Z,7.20
2022-12-07T07:51:08.529Z,5.90
2022-12-07T07:53:37.468Z,5.70
2022-12-07T07:56:06.209Z,6.90
2022-12-07T07:58:34.956Z,7.20
2022-12-07T08:01:09.340Z,7.50
2022-12-07T08:03:38.153Z,7.10
2022-12-07T08:06:07.737Z,6.00
2022-12-07T08:08:36.549Z,7.10
2022-12-07T08:11:10.588Z,6.60
2022-12-07T08:13:39.769Z,7.70
2022-12-07T08:16:11.995Z,7.80
2022-12-07T08:18:42.829Z,7.70
2022-12-07T08:21:15.833Z,8.50
2022-12-07T08:23:44.850Z,7.20
2022-12-07T08:26:18.144Z,7.50
2022-12-07T08:28:47.251Z,7.90
2022-12-07T08:31:20.410Z,8.00
2022-12-07T08:33:50.572Z,7.20
2022-12-07T08:36:19.662Z,6.50
2022-12-07T08:39:22.475Z,7.30
2022-12-07T08:41:37.767Z,7.20
2022-12-07T08:44:07.188Z,7.60
2022-12-07T08:46:56.488Z,7.60
2022-12-07T08:49:34.582Z,7.50
2022-12-07T08:52:06.754Z,6.60
2022-12-07T08:54:39.327Z,6.30
2022-12-07T08:57:09.869Z,6.70
2022-12-07T08:59:39.278Z,5.70
2022-12-07T09:02:08.364Z,6.40
2022-12-07T09:04:37.251Z,6.60
2022-12-07T09:07:06.844Z,6.10
2022-12-07T09:09:35.552Z,5.10
2022-12-07T09:12:05.089Z,5.70
2022-12-07T09:14:34.470Z,5.60
2022-12-07T09:17:14.207Z,5.10
2022-12-07T09:19:43.928Z,4.80
2022-12-07T09:22:13.007Z,6.00
2022-12-07T09:24:41.808Z,6.20
2022-12-07T09:27:10.396Z,4.50
2022-12-07T09:29:39.387Z,5.60
2022-12-07T09:32:11.588Z,5.00
2022-12-07T09:34:41.032Z,5.90
2022-12-07T09:37:10.175Z,5.50
2022-12-07T09:39:48.257Z,5.00
2022-12-07T09:42:38.266Z,5.00
2022-12-07T09:45:20.932Z,4.80
2022-12-07T09:47:51.664Z,5.30
2022-12-07T09:50:29.303Z,4.90
2022-12-07T09:53:17.145Z,5.10
2022-12-07T09:55:46.123Z,7.30
2022-12-07T09:58:28.942Z,5.30
2022-12-07T10:01:22.473Z,5.80
2022-12-07T10:04:00.422Z,4.00
2022-12-07T10:06:29.464Z,5.50
2022-12-07T10:08:58.103Z,4.30
2022-12-07T10:11:26.882Z,4.60
2022-12-07T10:13:55.786Z,5.80
2022-12-07T10:16:43.130Z,4.80
2022-12-07T10:19:26.867Z,4.40
2022-12-07T10:22:15.224Z,4.50
2022-12-07T10:24:48.785Z,4.60
2022-12-07T10:27:30.786Z,3.70
2022-12-07T10:30:01.429Z,4.00
2022-12-07T10:32:36.628Z,4.50
2022-12-07T10:35:32.537Z,4.50
2022-12-07T10:38:18.579Z,3.50
2022-12-07T10:40:48.407Z,3.30
2022-12-07T10:43:21.103Z,3.40
2022-12-07T10:46:04.503Z,2.80
2022-12-07T10:49:00.551Z,3.40
2022-12-07T10:51:58.208Z,2.70
2022-12-07T10:55:11.434Z,3.30
2022-12-07T10:58:10.751Z,2.50
2022-12-07T11:00:59.288Z,2.70
2022-12-07T11:04:19.588Z,2.50
2022-12-07T11:07:19.929Z,2.40
2022-12-07T11:10:11.284Z,2.30
2022-12-07T11:13:00.710Z,2.30
2022-12-07T11:16:13.892Z,1.90
2022-12-07T11:19:28.224Z,3.20
2022-12-07T11:22:05.269Z,2.30
2022-12-07T11:24:52.507Z,2.80
2022-12-07T11:27:37.168Z,2.90
2022-12-07T11:30:22.530Z,3.30
2022-12-07T11:33:13.649Z,3.20
2022-12-07T11:36:04.987Z,2.80
2022-12-07T11:38:52.188Z,2.70
2022-12-07T11:41:40.347Z,2.90
2022-12-07T11:44:27.687Z,2.20
2022-12-07T11:47:36.489Z,3.00
2022-12-07T11:50:20.955Z,2.60
2022-12-07T11:52:56.090Z,3.00
2022-12-07T11:55:54.774Z,3.10
2022-12-07T11:58:54.190Z,2.60
2022-12-07T12:01:50.672Z,2.80
2022-12-07T12:04:42.654Z,2.70
2022-12-07T12:10:31.329Z,3.30
2022-12-07T12:16:44.676Z,3.30
2022-12-07T12:20:01.917Z,3.20
2022-12-07T12:22:50.877Z,3.00
2022-12-07T12:25:32.281Z,3.30
2022-12-07T12:28:01.870Z,3.20
2022-12-07T12:30:39.690Z,3.10
2022-12-07T12:33:33.964Z,3.60
2022-12-07T12:36:27.818Z,3.30
2022-12-07T12:39:08.705Z,3.30
2022-12-07T12:41:37.707Z,3.60
2022-12-07T12:44:21.953Z,4.30
2022-12-07T12:47:06.058Z,3.10
2022-12-07T12:49:47.184Z,4.80
2022-12-07T12:52:16.365Z,3.40
2022-12-07T12:55:21.825Z,4.20
2022-12-07T12:58:19.799Z,3.10
2022-12-07T13:01:29.901Z,4.40
2022-12-07T13:03:59.768Z,4.10
2022-12-07T13:06:28.778Z,4.10
2022-12-07T13:09:01.779Z,4.60
2022-12-07T13:11:41.701Z,4.40
2022-12-07T13:15:28.204Z,4.20
2022-12-07T13:18:02.105Z,3.70
2022-12-07T13:20:51.405Z,3.60
2022-12-07T13:23:33.086Z,4.20
2022-12-07T13:26:33.936Z,4.60
2022-12-07T13:29:12.023Z,4.30
2022-12-07T13:31:46.883Z,5.00
2022-12-07T13:34:43.401Z,4.00
2022-12-07T13:37:38.405Z,3.60
2022-12-07T13:40:34.137Z,4.00
2022-12-07T13:43:06.535Z,3.80
2022-12-07T13:45:51.386Z,3.80
2022-12-07T13:48:52.713Z,5.10
2022-12-07T13:51:28.671Z,5.40
2022-12-07T13:54:03.229Z,4.20
2022-12-07T13:56:37.689Z,4.40
2022-12-07T13:59:15.634Z,5.30
2022-12-07T14:01:49.482Z,5.40
2022-12-07T14:04:40.308Z,5.10
2022-12-07T14:07:32.427Z,4.30
2022-12-07T14:10:07.375Z,3.90
2022-12-07T14:12:39.408Z,4.20
2022-12-07T14:15:24.691Z,3.90
2022-12-07T14:17:56.690Z,3.10
2022-12-07T14:20:38.910Z,3.30
2022-12-07T14:23:27.249Z,3.50
2022-12-07T14:26:06.388Z,4.20
2022-12-07T14:28:38.407Z,3.50
2022-12-07T14:31:27.490Z,3.70
2022-12-07T14:34:02.366Z,3.80
2022-12-07T14:36:31.365Z,3.40
2022-12-07T14:39:00.972Z,3.20
2022-12-07T14:41:49.716Z,3.10
2022-12-07T14:44:28.245Z,3.60
2022-12-07T14:49:47.534Z,3.20
2022-12-07T14:55:28.427Z,4.30
2022-12-07T14:57:58.151Z,3.40
2022-12-07T15:00:30.266Z,3.90
2022-12-07T15:02:59.865Z,3.90
2022-12-07T15:05:28.923Z,4.30
2022-12-07T15:07:58.292Z,3.60
2022-12-07T15:10:35.066Z,3.70
2022-12-07T15:13:37.567Z,3.50
2022-12-07T15:16:12.374Z,4.60
2022-12-07T15:18:45.453Z,7.60
2022-12-07T15:21:27.787Z,7.30
2022-12-07T15:23:56.791Z,4.10
2022-12-07T15:26:25.752Z,4.00
2022-12-07T15:28:56.148Z,4.10
2022-12-07T15:31:54.084Z,3.70
2022-12-07T15:34:15.656Z,4.10
2022-12-07T15:36:44.906Z,4.50
2022-12-07T15:39:15.105Z,3.40
2022-12-07T15:41:44.266Z,4.80
2022-12-07T15:44:34.494Z,3.80
2022-12-07T15:47:03.507Z,3.60
2022-12-07T15:49:32.987Z,3.80
2022-12-07T15:52:02.226Z,4.50
2022-12-07T15:54:33.457Z,4.60
2022-12-07T15:57:02.758Z,4.40
2022-12-07T15:59:32.778Z,4.80
2022-12-07T16:02:03.932Z,5.70
2022-12-07T16:04:33.206Z,4.60
2022-12-07T16:07:02.306Z,4.40
2022-12-07T16:09:31.828Z,3.90
2022-12-07T16:12:00.834Z,5.10
2022-12-07T16:14:29.607Z,4.80
2022-12-07T16:16:58.455Z,5.60
2022-12-07T16:19:27.689Z,4.40
2022-12-07T16:21:56.586Z,5.60
2022-12-07T16:24:25.988Z,5.90
2022-12-07T16:26:55.172Z,5.60
2022-12-07T16:29:25.007Z,6.20
2022-12-07T16:31:54.069Z,6.60
2022-12-07T16:34:23.086Z,5.10
2022-12-07T16:37:07.198Z,4.60
2022-12-07T16:39:36.590Z,4.80
2022-12-07T16:42:05.906Z,4.50
2022-12-07T16:44:35.047Z,4.20
2022-12-07T16:47:04.056Z,3.90
2022-12-07T16:49:33.248Z,4.00
2022-12-07T16:52:19.209Z,4.60
2022-12-07T16:54:51.707Z,3.90
2022-12-07T16:57:23.384Z,3.70
2022-12-07T16:59:54.306Z,3.20
2022-12-07T17:02:23.167Z,4.00
2022-12-07T17:04:53.047Z,4.60
2022-12-07T17:07:21.913Z,5.90
2022-12-07T17:09:50.872Z,4.70
2022-12-07T17:12:20.706Z,5.00
2022-12-07T17:15:10.350Z,5.80
2022-12-07T17:17:42.507Z,8.60
2022-12-07T17:20:13.293Z,10.00
2022-12-07T17:22:43.934Z,8.20
2022-12-07T17:25:13.008Z,6.80
2022-12-07T17:27:43.028Z,8.50
2022-12-07T17:30:14.127Z,8.40
2022-12-07T17:32:44.489Z,8.80
2022-12-07T17:35:13.706Z,8.90
2022-12-07T17:37:47.438Z,10.20
2022-12-07T17:40:20.166Z,9.10
2022-12-07T17:42:51.943Z,8.30
2022-12-07T17:45:21.219Z,8.10
2022-12-07T17:47:50.146Z,7.90
2022-12-07T17:50:39.610Z,7.90
2022-12-07T17:53:12.618Z,7.50
2022-12-07T17:56:19.658Z,6.00
2022-12-07T17:58:30.552Z,7.50
2022-12-07T18:00:59.740Z,7.40
2022-12-07T18:06:48.831Z,6.60
2022-12-07T18:09:22.884Z,6.20
2022-12-07T18:11:51.844Z,9.70
2022-12-07T18:14:20.941Z,10.50
2022-12-07T18:16:52.762Z,10.80
2022-12-07T18:19:22.207Z,10.90
2022-12-07T18:21:51.208Z,8.90
2022-12-07T18:24:20.409Z,7.90
2022-12-07T18:26:49.486Z,8.00
2022-12-07T18:29:19.269Z,7.30
2022-12-07T18:31:48.977Z,7.50
2022-12-07T18:34:20.204Z,8.60
2022-12-07T18:36:51.748Z,8.30
2022-12-07T18:39:21.348Z,9.30
2022-12-07T18:41:50.535Z,9.40
2022-12-07T18:44:19.619Z,10.20
2022-12-07T18:46:48.837Z,10.20
2022-12-07T18:49:17.694Z,9.30
2022-12-07T18:51:46.500Z,11.80
2022-12-07T18:54:15.507Z,14.00
2022-12-07T18:56:44.591Z,17.00
2022-12-07T18:59:33.751Z,17.40
2022-12-07T19:02:02.676Z,14.70
2022-12-07T19:04:32.579Z,13.30
2022-12-07T19:07:01.800Z,12.60
2022-12-07T19:09:30.754Z,10.20
2022-12-07T19:12:03.784Z,8.70
2022-12-07T19:14:36.636Z,7.70
2022-12-07T19:17:13.501Z,6.80
2022-12-07T19:19:47.804Z,5.50
2022-12-07T19:22:20.959Z,5.70
2022-12-07T19:24:54.041Z,6.10
2022-12-07T19:27:24.766Z,5.50
2022-12-07T19:29:54.262Z,6.50
2022-12-07T19:32:23.169Z,5.70
2022-12-07T19:34:52.642Z,6.60
2022-12-07T19:37:21.430Z,6.50
2022-12-07T19:39:52.479Z,6.20
2022-12-07T19:42:21.579Z,3.80
2022-12-07T19:44:50.588Z,4.70
2022-12-07T19:47:19.568Z,5.30
2022-12-07T19:49:48.568Z,4.50
2022-12-07T19:52:17.863Z,6.60
2022-12-07T19:54:47.362Z,6.60
2022-12-07T19:57:18.216Z,6.80
2022-12-07T19:59:47.904Z,7.90
2022-12-07T20:02:17.431Z,8.50
2022-12-07T20:04:47.246Z,10.90
2022-12-07T20:07:16.437Z,7.90
2022-12-07T20:09:45.620Z,7.70
2022-12-07T20:12:33.562Z,7.50
2022-12-07T20:15:02.850Z,7.90
2022-12-07T20:17:32.416Z,8.30
2022-12-07T20:20:01.473Z,9.10
2022-12-07T20:22:30.472Z,8.70
2022-12-07T20:24:59.460Z,8.50
2022-12-07T20:27:28.562Z,8.70
2022-12-07T20:29:57.655Z,7.90
2022-12-07T20:32:26.441Z,5.90
2022-12-07T20:34:55.428Z,4.80
2022-12-07T20:37:24.217Z,5.40
2022-12-07T20:39:53.103Z,5.70
2022-12-07T20:42:37.361Z,4.30
2022-12-07T20:45:11.443Z,5.00
2022-12-07T20:47:40.584Z,6.20
2022-12-07T20:50:10.500Z,6.70
2022-12-07T20:52:39.593Z,4.80
2022-12-07T20:55:09.204Z,5.40
2022-12-07T20:57:38.479Z,4.70
2022-12-07T21:00:10.687Z,6.30
2022-12-07T21:02:41.190Z,6.00
2022-12-07T21:05:10.606Z,4.50
2022-12-07T21:07:39.622Z,4.30
2022-12-07T21:10:09.603Z,5.50
2022-12-07T21:12:39.010Z,5.20
2022-12-07T21:15:10.133Z,5.20
2022-12-07T21:17:39.364Z,4.70
2022-12-07T21:20:09.607Z,5.60
2022-12-07T21:22:38.627Z,4.50
2022-12-07T21:25:08.299Z,5.10
2022-12-07T21:27:37.285Z,5.60
2022-12-07T21:30:07.486Z,5.60
2022-12-07T21:32:36.406Z,5.20
2022-12-07T21:35:06.414Z,4.90
2022-12-07T21:37:35.705Z,4.60
2022-12-07T21:40:05.037Z,4.90
2022-12-07T21:42:33.804Z,3.80
2022-12-07T21:45:03.035Z,4.40
2022-12-07T21:47:33.616Z,3.40
2022-12-07T21:50:02.739Z,4.50
2022-12-07T21:52:31.721Z,3.60
2022-12-07T21:55:00.905Z,5.80
2022-12-07T21:57:32.079Z,5.20
2022-12-07T22:00:00.965Z,5.00
2022-12-07T22:02:30.143Z,5.10
2022-12-07T22:04:59.054Z,5.10
2022-12-07T22:07:27.946Z,3.60
2022-12-07T22:09:56.829Z,5.80
2022-12-07T22:12:25.733Z,4.30
2022-12-07T22:15:06.993Z,5.80
2022-12-07T22:17:36.503Z,5.50
2022-12-07T22:20:06.493Z,6.60
2022-12-07T22:22:35.521Z,5.70
2022-12-07T22:25:04.979Z,5.60
2022-12-07T22:27:34.236Z,6.10
2022-12-07T22:30:03.234Z,4.50
2022-12-07T22:32:49.024Z,5.30
2022-12-07T22:35:18.922Z,5.70
2022-12-07T22:37:47.824Z,6.60
2022-12-07T22:40:16.717Z,6.60
2022-12-07T22:42:45.603Z,7.10
2022-12-07T22:45:14.711Z,7.00
2022-12-07T22:47:43.696Z,6.30
2022-12-07T22:50:12.582Z,6.80
2022-12-07T22:52:41.788Z,7.40
2022-12-07T22:55:12.198Z,7.50
2022-12-07T22:57:41.217Z,7.00
2022-12-07T23:00:15.556Z,8.30
2022-12-07T23:02:45.215Z,7.60
2022-12-07T23:05:14.040Z,6.70
2022-12-07T23:07:42.842Z,6.60
2022-12-07T23:10:12.571Z,6.40
2022-12-07T23:13:00.251Z,5.10
2022-12-07T23:15:29.091Z,5.60
2022-12-07T23:18:02.494Z,5.70
2022-12-07T23:20:31.272Z,5.10
2022-12-07T23:23:04.933Z,5.60
2022-12-07T23:25:33.815Z,4.90
2022-12-07T23:28:02.537Z,4.90
2022-12-07T23:30:31.333Z,4.70
2022-12-07T23:33:00.057Z,2.80
2022-12-07T23:35:28.825Z,4.10
2022-12-07T23:37:57.658Z,4.70
2022-12-07T23:40:26.502Z,4.80
2022-12-07T23:42:55.377Z,5.10
2022-12-07T23:45:24.106Z,4.60
2022-12-07T23:47:52.831Z,4.50
2022-12-07T23:50:21.674Z,4.90
2022-12-07T23:52:55.716Z,4.30
2022-12-07T23:55:28.891Z,4.80
2022-12-07T23:57:57.663Z,5.40
